Time;durP1;ratioP1;P1;durP2;ratioP2;P2;SDS_P1;SDS_P2;PMS_P1;PMS_P2;Temp;Humidity;BMP_temperature;BMP_pressure;BME280_temperature;BME280_humidity;BME280_pressure;Samples;Min_cycle;Max_cycle;Signal;HPM_P1;HPM_P2
2022/06/12 00:00:25;;;;;;;12.73;8.85;;;22.30;78.30;;;;;;4981697;28;20043;-84
2022/06/12 00:02:51;;;;;;;12.57;8.85;;;22.30;78.50;;;;;;5001103;28;20057;-83
2022/06/12 00:05:19;;;;;;;12.23;9.43;;;22.30;78.60;;;;;;4981727;28;20052;-84
2022/06/12 00:07:45;;;;;;;11.90;8.95;;;22.20;78.10;;;;;;4984803;28;20318;-84
2022/06/12 00:10:12;;;;;;;12.85;9.15;;;22.20;77.50;;;;;;4981688;28;20042;-83
2022/06/12 00:12:41;;;;;;;12.43;8.82;;;22.10;77.30;;;;;;4980813;28;20034;-83
2022/06/12 00:15:08;;;;;;;14.57;9.82;;;22.10;76.70;;;;;;4986008;28;20044;-84
2022/06/12 00:17:34;;;;;;;13.82;8.93;;;22.10;76.40;;;;;;4998213;28;20035;-84
2022/06/12 00:20:00;;;;;;;11.50;8.95;;;22.00;76.70;;;;;;4969458;28;20073;-84
2022/06/12 00:22:26;;;;;;;16.17;9.52;;;22.00;76.10;;;;;;4984916;28;20496;-84
2022/06/12 00:24:52;;;;;;;13.13;9.38;;;21.90;76.00;;;;;;4966877;28;20129;-83
2022/06/12 00:27:18;;;;;;;14.00;9.70;;;22.00;76.00;;;;;;4961508;28;20126;-84
2022/06/12 00:29:47;;;;;;;14.30;10.43;;;22.00;75.60;;;;;;4961216;28;20161;-84
2022/06/12 00:32:16;;;;;;;15.95;11.65;;;22.00;75.10;;;;;;4950174;28;20037;-84
2022/06/12 00:34:49;;;;;;;13.27;11.85;;;22.00;74.90;;;;;;4980249;28;20137;-85
2022/06/12 00:37:18;;;;;;;16.38;12.93;;;21.90;75.10;;;;;;4980521;28;20031;-84
2022/06/12 00:39:45;;;;;;;21.45;14.23;;;22.00;74.90;;;;;;4987787;28;20043;-85
2022/06/12 00:42:35;;;;;;;15.10;12.32;;;21.90;75.00;;;;;;4983250;28;20541;-83
2022/06/12 00:45:23;;;;;;;17.48;13.32;;;22.00;74.50;;;;;;4982051;28;20580;-84
2022/06/12 00:47:49;;;;;;;19.95;13.02;;;21.90;74.60;;;;;;4910805;28;20485;-84
2022/06/12 00:50:15;;;;;;;18.40;13.60;;;21.90;74.90;;;;;;4922217;29;20130;-83
2022/06/12 00:52:46;;;;;;;18.20;12.60;;;21.90;75.20;;;;;;4890678;29;20160;-84
2022/06/12 00:55:17;;;;;;;18.67;14.32;;;21.90;75.10;;;;;;4894387;29;20047;-83
2022/06/12 00:57:45;;;;;;;16.98;13.15;;;21.90;75.30;;;;;;4925629;29;20538;-85
2022/06/12 01:00:14;;;;;;;20.48;13.43;;;21.90;75.60;;;;;;4920135;28;20040;-83
2022/06/12 01:02:41;;;;;;;17.83;13.43;;;21.90;75.70;;;;;;4922901;29;20024;-84
2022/06/12 01:08:00;;;;;;;18.73;13.15;;;21.90;75.90;;;;;;4920873;29;20040;-83
2022/06/12 01:10:28;;;;;;;19.45;11.82;;;21.80;76.00;;;;;;4922064;29;20052;-84
2022/06/12 01:12:59;;;;;;;16.55;12.05;;;21.90;76.10;;;;;;4921445;28;20075;-84
2022/06/12 01:15:53;;;;;;;17.02;12.00;;;21.90;75.90;;;;;;4921227;28;20085;-84
2022/06/12 01:18:24;;;;;;;13.07;11.68;;;21.90;75.50;;;;;;4918988;28;20043;-84
2022/06/12 01:21:11;;;;;;;14.05;11.65;;;22.00;75.50;;;;;;4921281;28;20550;-84
2022/06/12 01:24:12;;;;;;;15.35;11.30;;;22.00;75.40;;;;;;4889708;28;20032;-84
2022/06/12 01:26:38;;;;;;;14.27;11.25;;;22.00;75.20;;;;;;4981482;28;20069;-84
2022/06/12 01:29:33;;;;;;;17.13;11.60;;;22.00;75.20;;;;;;4968968;28;20041;-84
2022/06/12 01:32:02;;;;;;;16.63;11.18;;;22.10;75.20;;;;;;4984622;28;20587;-84
2022/06/12 01:34:52;;;;;;;15.50;11.07;;;22.10;74.80;;;;;;4984486;28;20076;-83
2022/06/12 01:37:33;;;;;;;12.23;10.43;;;22.20;74.60;;;;;;4981089;28;20092;-84
2022/06/12 01:40:33;;;;;;;12.30;11.00;;;22.20;74.80;;;;;;4979757;28;20030;-84
2022/06/12 01:43:05;;;;;;;13.93;10.60;;;22.20;74.80;;;;;;4983066;28;20050;-84
2022/06/12 01:45:43;;;;;;;15.60;10.65;;;22.20;74.80;;;;;;4980109;28;20026;-85
2022/06/12 01:48:21;;;;;;;16.30;10.52;;;22.20;74.80;;;;;;4981467;28;20042;-84
2022/06/12 01:51:13;;;;;;;14.02;10.90;;;22.20;74.40;;;;;;4979343;28;20033;-84
2022/06/12 01:54:04;;;;;;;13.00;10.98;;;22.20;74.70;;;;;;4980060;28;20041;-83
2022/06/12 01:56:58;;;;;;;12.25;10.95;;;22.10;74.80;;;;;;4997052;28;20540;-83
2022/06/12 01:59:29;;;;;;;18.67;10.70;;;22.10;75.00;;;;;;4977230;28;20042;-83
2022/06/12 02:02:10;;;;;;;17.17;11.02;;;22.10;75.20;;;;;;4978964;28;20030;-84
2022/06/12 02:04:48;;;;;;;17.63;11.52;;;22.10;75.00;;;;;;4979318;28;20085;-82
2022/06/12 02:07:20;;;;;;;21.08;11.73;;;22.10;75.00;;;;;;4980866;28;20460;-82
2022/06/12 02:09:52;;;;;;;15.45;11.15;;;22.10;75.10;;;;;;4995432;28;20042;-83
2022/06/12 02:15:32;;;;;;;16.58;11.45;;;22.10;75.30;;;;;;4987285;28;20113;-83
2022/06/12 02:18:05;;;;;;;19.27;11.70;;;22.20;75.30;;;;;;4996706;28;20046;-83
2022/06/12 02:20:36;;;;;;;15.18;11.82;;;22.30;75.20;;;;;;4995907;28;20515;-83
2022/06/12 02:23:08;;;;;;;17.35;11.98;;;22.30;75.00;;;;;;4976822;28;20043;-83
2022/06/12 02:25:40;;;;;;;17.27;11.73;;;22.20;75.00;;;;;;4992108;28;20475;-82
2022/06/12 02:28:18;;;;;;;17.50;11.93;;;22.20;75.20;;;;;;4965523;28;20425;-83
2022/06/12 02:30:49;;;;;;;16.08;11.45;;;22.20;75.00;;;;;;4968285;28;20130;-83
2022/06/12 02:33:23;;;;;;;16.55;11.48;;;22.20;74.90;;;;;;4963328;28;20039;-83
2022/06/12 02:36:10;;;;;;;14.10;10.90;;;22.30;74.70;;;;;;4996111;28;20030;-83
2022/06/12 02:38:43;;;;;;;14.15;10.57;;;22.30;74.60;;;;;;4968039;28;20035;-82
2022/06/12 02:41:44;;;;;;;13.75;9.98;;;22.30;73.60;;;;;;4979196;28;20046;-83
2022/06/12 02:44:36;;;;;;;12.00;10.07;;;22.30;73.40;;;;;;4977903;28;20548;-83
2022/06/12 02:47:11;;;;;;;12.25;9.38;;;22.30;73.00;;;;;;4980036;28;20093;-82
2022/06/12 02:49:39;;;;;;;10.48;8.98;;;22.30;73.00;;;;;;4999458;28;20066;-82
2022/06/12 02:52:15;;;;;;;15.75;9.52;;;22.40;72.90;;;;;;4984796;28;20045;-82
2022/06/12 02:55:02;;;;;;;14.68;8.85;;;22.30;72.60;;;;;;5001329;28;20041;-82
2022/06/12 02:57:50;;;;;;;10.75;8.15;;;22.30;72.80;;;;;;4985455;28;20413;-82
2022/06/12 03:00:28;;;;;;;11.07;8.80;;;22.40;72.10;;;;;;4997698;28;20042;-82
2022/06/12 03:03:10;;;;;;;10.30;7.97;;;22.50;72.50;;;;;;4984793;28;20033;-82
2022/06/12 03:05:40;;;;;;;10.80;7.68;;;22.50;72.20;;;;;;4988563;28;20034;-82
2022/06/12 03:08:16;;;;;;;9.07;8.15;;;22.60;72.80;;;;;;4985190;28;20516;-82
2022/06/12 03:10:56;;;;;;;14.23;8.25;;;22.70;71.90;;;;;;4985058;28;20501;-83
2022/06/12 03:13:25;;;;;;;9.85;7.45;;;22.70;71.60;;;;;;4982986;28;20113;-82
2022/06/12 03:16:14;;;;;;;9.60;7.30;;;22.70;71.80;;;;;;4984463;28;20084;-82
2022/06/12 03:18:49;;;;;;;8.38;7.30;;;22.70;71.80;;;;;;4983308;28;20549;-85
2022/06/12 03:21:21;;;;;;;8.27;7.18;;;22.70;71.70;;;;;;4982679;28;20046;-82
2022/06/12 03:24:11;;;;;;;10.15;7.18;;;22.80;71.90;;;;;;4983447;28;20375;-84
2022/06/12 03:27:06;;;;;;;9.63;6.82;;;22.90;71.60;;;;;;4999370;28;20027;-85
2022/06/12 03:30:00;;;;;;;15.07;6.38;;;23.10;71.40;;;;;;5000359;28;20042;-82
2022/06/12 03:32:53;;;;;;;7.00;5.82;;;23.30;71.40;;;;;;4985995;28;20540;-82
2022/06/12 03:35:58;;;;;;;8.80;6.05;;;23.50;71.00;;;;;;4998351;28;20583;-83
2022/06/12 03:38:43;;;;;;;6.85;5.25;;;23.60;71.20;;;;;;4967797;28;20508;-83
2022/06/12 03:41:18;;;;;;;6.60;4.97;;;23.70;70.60;;;;;;4987518;28;20167;-82
2022/06/12 03:43:52;;;;;;;5.55;5.00;;;23.90;70.50;;;;;;4964511;28;20544;-83
2022/06/12 03:46:41;;;;;;;5.55;4.22;;;24.00;70.20;;;;;;4984032;28;20030;-82
2022/06/12 03:49:41;;;;;;;5.75;4.72;;;24.10;69.80;;;;;;4967056;28;20045;-82
2022/06/12 03:52:36;;;;;;;6.43;4.18;;;24.30;69.50;;;;;;4981758;28;20038;-84
2022/06/12 03:55:10;;;;;;;6.47;4.50;;;24.40;67.90;;;;;;4983393;28;20066;-84
2022/06/12 03:57:52;;;;;;;6.47;4.07;;;24.50;68.50;;;;;;4965543;28;20093;-84
2022/06/12 04:00:41;;;;;;;4.43;4.03;;;24.60;68.60;;;;;;4950385;28;20417;-82
2022/06/12 04:03:13;;;;;;;5.30;4.18;;;24.70;69.20;;;;;;4986438;28;20532;-83
2022/06/12 04:05:50;;;;;;;4.90;4.30;;;24.80;68.70;;;;;;4981738;28;20038;-83
2022/06/12 04:08:22;;;;;;;5.20;4.13;;;24.90;68.70;;;;;;4986530;28;20543;-83
2022/06/12 04:10:50;;;;;;;4.97;4.05;;;25.00;68.00;;;;;;4999100;28;20038;-83
2022/06/12 04:13:18;;;;;;;6.43;4.75;;;25.10;68.10;;;;;;4985780;28;20043;-83
2022/06/12 04:16:06;;;;;;;4.70;4.20;;;25.20;68.00;;;;;;4986768;28;20561;-83
2022/06/12 04:18:33;;;;;;;4.75;4.32;;;25.30;67.60;;;;;;4984469;28;20417;-83
2022/06/12 04:20:59;;;;;;;6.32;4.10;;;25.40;67.80;;;;;;4986491;28;20031;-83
2022/06/12 04:24:01;;;;;;;6.40;4.32;;;25.50;67.60;;;;;;4954881;28;21140;-83
2022/06/12 04:26:37;;;;;;;5.13;4.47;;;25.60;68.40;;;;;;4954345;28;20038;-83
2022/06/12 04:29:28;;;;;;;6.95;4.45;;;25.70;67.60;;;;;;4981662;28;20035;-83
2022/06/12 04:31:57;;;;;;;5.63;4.38;;;25.80;67.70;;;;;;4985130;28;20066;-83
2022/06/12 04:34:31;;;;;;;5.25;4.60;;;25.90;67.20;;;;;;4998474;28;20050;-83
2022/06/12 04:37:03;;;;;;;8.35;4.53;;;26.00;66.70;;;;;;4982176;28;20517;-83
2022/06/12 04:39:32;;;;;;;5.57;4.40;;;26.20;67.10;;;;;;4982425;28;20326;-83
2022/06/12 04:42:00;;;;;;;8.05;4.85;;;26.30;66.70;;;;;;4980039;28;20039;-83
2022/06/12 04:44:25;;;;;;;5.05;4.55;;;26.30;66.80;;;;;;4983182;28;20607;-83
2022/06/12 04:46:53;;;;;;;5.80;4.22;;;26.40;66.70;;;;;;4969557;28;20120;-83
2022/06/12 04:49:24;;;;;;;8.15;4.50;;;26.50;66.30;;;;;;4980920;28;20039;-83
2022/06/12 04:51:52;;;;;;;5.07;4.50;;;26.60;66.40;;;;;;4969640;28;20033;-83
2022/06/12 04:54:19;;;;;;;5.38;3.97;;;26.70;66.10;;;;;;4981261;28;20061;-83
2022/06/12 04:56:46;;;;;;;4.72;3.90;;;26.80;65.70;;;;;;4969294;28;20034;-84
2022/06/12 04:59:14;;;;;;;5.60;4.20;;;26.90;65.80;;;;;;4986175;28;20505;-83
2022/06/12 05:01:41;;;;;;;5.20;4.25;;;27.00;65.40;;;;;;4996864;28;20037;-83
2022/06/12 05:04:07;;;;;;;4.88;4.30;;;27.00;65.00;;;;;;4996937;28;20090;-83
2022/06/12 05:06:35;;;;;;;4.97;3.80;;;27.00;64.20;;;;;;4983301;28;20049;-83
2022/06/12 05:09:01;;;;;;;5.90;4.20;;;27.10;64.60;;;;;;4976866;28;20035;-82
2022/06/12 05:11:27;;;;;;;8.02;4.10;;;27.00;63.10;;;;;;4965090;28;20557;-83
2022/06/12 05:13:53;;;;;;;5.15;3.67;;;27.00;62.70;;;;;;4961401;28;20654;-83
2022/06/12 05:17:03;;;;;;;4.75;3.72;;;27.00;62.80;;;;;;4965494;28;20042;-83
2022/06/12 05:19:33;;;;;;;3.88;3.55;;;27.00;63.30;;;;;;4956370;28;20041;-83
2022/06/12 05:22:00;;;;;;;5.55;3.85;;;27.00;63.70;;;;;;4958885;28;20043;-83
2022/06/12 05:24:26;;;;;;;5.05;3.70;;;27.00;64.40;;;;;;4958511;28;20046;-83
2022/06/12 05:26:53;;;;;;;4.43;3.75;;;27.10;63.30;;;;;;4948352;28;20042;-83
2022/06/12 05:29:29;;;;;;;5.75;4.25;;;27.10;62.60;;;;;;4945399;28;20042;-83
2022/06/12 05:31:56;;;;;;;4.40;4.00;;;26.90;61.60;;;;;;4944509;28;20421;-83
2022/06/12 05:34:23;;;;;;;3.58;3.28;;;26.90;61.90;;;;;;4931725;28;20037;-83
2022/06/12 05:36:50;;;;;;;4.30;3.33;;;26.90;62.20;;;;;;4959700;28;20548;-83
2022/06/12 05:39:16;;;;;;;4.07;3.60;;;26.90;61.60;;;;;;4946846;28;20039;-83
2022/06/12 05:41:42;;;;;;;3.65;3.35;;;26.80;62.40;;;;;;4948211;28;20038;-83
2022/06/12 05:44:08;;;;;;;4.78;3.45;;;26.90;64.10;;;;;;4956459;28;20141;-83
2022/06/12 05:46:34;;;;;;;4.53;3.83;;;26.90;63.30;;;;;;4947491;28;20456;-83
2022/06/12 05:49:00;;;;;;;4.53;3.63;;;26.90;62.80;;;;;;4931804;28;20035;-83
2022/06/12 05:51:26;;;;;;;4.40;3.20;;;26.90;62.00;;;;;;4981996;28;20452;-83
2022/06/12 05:53:52;;;;;;;3.25;3.00;;;27.00;63.00;;;;;;4965479;28;20034;-83
2022/06/12 05:56:22;;;;;;;3.75;2.90;;;27.10;63.40;;;;;;4980513;28;20041;-83
2022/06/12 05:58:48;;;;;;;3.22;2.90;;;27.30;63.60;;;;;;4963987;28;20185;-83
2022/06/12 06:01:17;;;;;;;4.40;3.13;;;27.60;63.70;;;;;;4981829;28;20542;-82
2022/06/12 06:03:43;;;;;;;3.10;2.90;;;27.70;61.50;;;;;;4979000;28;20528;-83
2022/06/12 06:06:13;;;;;;;3.22;2.72;;;27.90;61.70;;;;;;4965739;28;20034;-81
2022/06/12 06:08:39;;;;;;;4.40;2.97;;;28.00;61.90;;;;;;4983417;28;20121;-82
2022/06/12 06:11:06;;;;;;;3.55;2.60;;;28.20;60.80;;;;;;4980159;28;20287;-82
2022/06/12 06:13:33;;;;;;;2.75;2.53;;;28.20;61.70;;;;;;4967966;28;20034;-82
2022/06/12 06:15:59;;;;;;;3.13;2.83;;;28.40;61.30;;;;;;4980935;28;20424;-82
2022/06/12 06:18:25;;;;;;;2.72;2.53;;;28.50;60.70;;;;;;4982676;28;20046;-82
2022/06/12 06:20:51;;;;;;;3.17;2.60;;;28.50;60.70;;;;;;4980811;28;20041;-82
2022/06/12 06:23:17;;;;;;;2.47;2.28;;;28.60;60.10;;;;;;4964892;28;20030;-82
2022/06/12 06:25:43;;;;;;;3.05;2.58;;;28.70;60.00;;;;;;4980700;28;20453;-82
2022/06/12 06:28:11;;;;;;;2.25;2.15;;;28.70;59.00;;;;;;4984089;28;20533;-82
2022/06/12 06:30:38;;;;;;;3.13;2.70;;;28.80;60.40;;;;;;4980822;28;20038;-82
2022/06/12 06:33:04;;;;;;;3.83;2.88;;;28.80;60.90;;;;;;4967911;28;20041;-82
2022/06/12 06:35:30;;;;;;;3.00;2.67;;;28.70;58.60;;;;;;4978248;28;20045;-82
2022/06/12 06:37:57;;;;;;;3.10;2.58;;;28.60;57.60;;;;;;4967647;28;20034;-82
2022/06/12 06:40:26;;;;;;;2.75;2.63;;;28.70;59.40;;;;;;4979798;28;20039;-82
2022/06/12 06:42:52;;;;;;;2.88;2.67;;;28.80;59.60;;;;;;4978262;28;20046;-82
2022/06/12 06:48:06;;;;;;;3.47;2.70;;;29.00;59.40;;;;;;4995252;28;20042;-83
2022/06/12 06:50:33;;;;;;;4.70;2.72;;;29.10;59.20;;;;;;4980895;28;20145;-83
2022/06/12 06:53:00;;;;;;;4.40;2.80;;;29.20;58.90;;;;;;4980593;28;20034;-83
2022/06/12 06:55:28;;;;;;;2.78;2.58;;;29.20;58.60;;;;;;4983497;28;20053;-82
2022/06/12 06:57:54;;;;;;;3.15;2.70;;;29.20;57.40;;;;;;4982404;28;20038;-82
2022/06/12 07:00:29;;;;;;;3.25;2.70;;;29.30;57.60;;;;;;4980903;28;20038;-82
2022/06/12 07:02:55;;;;;;;;;;;29.30;58.40;;;;;;4983696;28;20185;-82
2022/06/12 07:05:21;;;;;;;3.22;2.50;;;29.20;58.10;;;;;;4995911;28;20000;-83
2022/06/12 07:07:47;;;;;;;3.75;2.80;;;29.10;57.60;;;;;;4978815;28;20454;-83
2022/06/12 07:10:16;;;;;;;2.60;2.40;;;29.00;56.60;;;;;;4980419;28;20042;-83
2022/06/12 07:12:43;;;;;;;3.17;2.50;;;28.80;55.80;;;;;;4965018;28;20034;-83
2022/06/12 07:15:11;;;;;;;2.88;2.63;;;28.60;55.50;;;;;;4984382;28;20042;-83
2022/06/12 07:17:37;;;;;;;2.78;2.50;;;28.50;55.40;;;;;;4967751;28;20034;-83
2022/06/12 07:20:03;;;;;;;3.88;2.47;;;28.40;55.70;;;;;;4965228;28;20046;-83
2022/06/12 07:22:29;;;;;;;3.53;2.58;;;28.50;56.80;;;;;;4980568;28;20045;-83
2022/06/12 07:24:55;;;;;;;3.03;2.40;;;28.60;55.90;;;;;;4964641;28;20808;-82
2022/06/12 07:27:21;;;;;;;4.18;2.53;;;28.60;56.30;;;;;;4968243;28;20035;-83
2022/06/12 07:29:47;;;;;;;3.10;2.55;;;28.70;56.20;;;;;;4978895;28;20409;-82
2022/06/12 07:32:14;;;;;;;2.53;2.33;;;28.80;54.90;;;;;;4984612;28;20034;-83
2022/06/12 07:34:40;;;;;;;5.22;2.50;;;28.80;55.70;;;;;;4995806;28;20034;-82
2022/06/12 07:37:07;;;;;;;2.30;2.20;;;28.90;57.50;;;;;;4982696;28;20042;-82
2022/06/12 07:39:34;;;;;;;3.45;2.10;;;28.90;56.00;;;;;;4954728;28;20034;-82
2022/06/12 07:42:00;;;;;;;3.30;2.70;;;28.90;58.00;;;;;;4982878;28;20041;-82
2022/06/12 07:44:28;;;;;;;2.45;2.25;;;28.90;58.70;;;;;;4965993;28;20454;-83
2022/06/12 07:46:56;;;;;;;2.25;2.15;;;29.00;58.90;;;;;;4982988;28;20054;-82
2022/06/12 07:49:24;;;;;;;2.78;2.30;;;29.00;58.70;;;;;;4984667;28;20536;-82
2022/06/12 07:51:52;;;;;;;2.63;2.42;;;29.00;56.80;;;;;;4984865;28;20030;-83
2022/06/12 07:54:19;;;;;;;2.70;2.45;;;28.90;57.90;;;;;;4984187;28;20501;-83
2022/06/12 07:56:45;;;;;;;3.63;2.38;;;28.90;57.90;;;;;;4983332;28;20038;-83
2022/06/12 07:59:11;;;;;;;2.97;2.70;;;28.90;59.20;;;;;;4987157;28;20033;-83
2022/06/12 08:01:38;;;;;;;4.30;3.00;;;28.90;58.00;;;;;;4984818;28;20119;-83
2022/06/12 08:04:05;;;;;;;5.03;3.33;;;28.80;55.00;;;;;;4983329;28;20172;-83
2022/06/12 08:06:31;;;;;;;2.85;2.67;;;28.70;54.30;;;;;;4966238;28;20056;-83
2022/06/12 08:08:57;;;;;;;3.10;2.80;;;28.50;55.60;;;;;;4979863;28;20039;-83
2022/06/12 08:11:25;;;;;;;3.22;2.63;;;28.50;55.50;;;;;;4984457;28;20042;-83
2022/06/12 08:13:51;;;;;;;2.67;2.17;;;28.50;55.80;;;;;;4983119;28;20030;-84
2022/06/12 08:16:18;;;;;;;3.50;2.50;;;28.60;56.70;;;;;;4969777;28;20042;-83
2022/06/12 08:18:44;;;;;;;3.33;2.50;;;28.50;54.20;;;;;;4967907;28;20647;-83
2022/06/12 08:21:12;;;;;;;2.72;2.53;;;28.30;51.30;;;;;;4984797;28;20402;-83
2022/06/12 08:23:43;;;;;;;2.67;2.47;;;28.20;53.80;;;;;;4981067;28;20041;-83
2022/06/12 08:26:11;;;;;;;3.10;2.80;;;28.20;55.30;;;;;;4998885;28;20046;-83
2022/06/12 08:29:03;;;;;;;2.30;2.10;;;28.20;53.40;;;;;;4982362;28;20580;-83
2022/06/12 08:31:36;;;;;;;2.60;2.40;;;28.20;55.00;;;;;;4978406;28;20038;-83
2022/06/12 08:34:08;;;;;;;2.47;2.28;;;28.20;56.10;;;;;;4997930;28;20053;-84
2022/06/12 08:36:35;;;;;;;2.75;2.25;;;28.20;56.50;;;;;;4963358;28;20068;-83
2022/06/12 08:39:03;;;;;;;2.55;2.30;;;28.10;56.20;;;;;;4982740;28;20042;-83
2022/06/12 08:41:37;;;;;;;4.10;2.70;;;28.10;56.20;;;;;;4987372;28;20516;-83
2022/06/12 08:44:13;;;;;;;5.55;2.47;;;28.10;56.10;;;;;;4997566;28;20058;-83
2022/06/12 08:46:54;;;;;;;3.10;2.42;;;28.10;55.00;;;;;;4968076;28;20062;-83
2022/06/12 08:49:41;;;;;;;2.72;2.53;;;28.00;54.50;;;;;;4998519;28;20034;-83
2022/06/12 08:52:28;;;;;;;2.60;2.40;;;28.00;56.40;;;;;;4983370;28;20038;-83
2022/06/12 08:55:22;;;;;;;2.58;2.38;;;27.90;57.00;;;;;;4980319;28;20064;-83
2022/06/12 08:58:06;;;;;;;3.58;2.50;;;27.90;55.10;;;;;;4983274;28;20030;-83
2022/06/12 09:00:35;;;;;;;3.13;2.45;;;27.90;55.40;;;;;;4979935;28;20037;-83
2022/06/12 09:03:03;;;;;;;3.78;2.38;;;27.80;53.70;;;;;;4981346;28;20514;-83
2022/06/12 09:05:40;;;;;;;2.25;2.15;;;27.60;51.60;;;;;;4982475;28;20057;-83
2022/06/12 09:08:21;;;;;;;2.75;2.40;;;27.60;54.00;;;;;;4997812;28;20046;-83
2022/06/12 09:11:14;;;;;;;2.60;2.40;;;27.60;51.10;;;;;;4960903;28;20064;-83
2022/06/12 09:13:46;;;;;;;2.40;2.20;;;27.50;51.40;;;;;;4977860;28;20517;-83
2022/06/12 09:16:14;;;;;;;2.45;2.25;;;27.50;53.70;;;;;;4985490;28;20045;-83
2022/06/12 09:18:53;;;;;;;3.30;2.20;;;27.50;55.10;;;;;;4985429;28;20048;-81
2022/06/12 09:21:28;;;;;;;2.60;2.15;;;27.40;52.20;;;;;;4982922;28;20038;-82
2022/06/12 09:24:19;;;;;;;4.50;2.42;;;27.40;53.30;;;;;;4982456;28;20039;-82
2022/06/12 09:27:10;;;;;;;2.35;2.15;;;27.40;53.20;;;;;;4979797;28;20034;-83
2022/06/12 09:30:02;;;;;;;2.28;2.08;;;27.40;54.40;;;;;;4981627;28;20049;-83
2022/06/12 09:32:43;;;;;;;2.33;2.22;;;27.30;53.30;;;;;;5000766;28;20137;-82
2022/06/12 09:35:24;;;;;;;2.47;2.28;;;27.30;54.20;;;;;;4979928;28;20100;-83
2022/06/12 09:38:21;;;;;;;2.47;2.28;;;27.20;51.60;;;;;;4979186;28;20173;-82
2022/06/12 09:40:50;;;;;;;2.63;2.30;;;27.20;53.10;;;;;;4980329;28;20137;-82
2022/06/12 09:43:39;;;;;;;3.20;2.88;;;27.10;52.60;;;;;;4996386;28;20057;-82
2022/06/12 09:46:23;;;;;;;2.65;2.45;;;27.20;53.10;;;;;;4928439;28;20094;-82
2022/06/12 09:49:07;;;;;;;3.15;2.28;;;27.10;51.90;;;;;;4928149;28;20039;-83
2022/06/12 09:51:51;;;;;;;2.78;2.42;;;27.10;51.60;;;;;;4927883;28;20680;-83
2022/06/12 09:54:38;;;;;;;5.05;2.55;;;27.10;51.80;;;;;;4927325;29;20114;-83
2022/06/12 09:57:33;;;;;;;2.20;2.00;;;27.00;50.50;;;;;;4928629;28;20046;-83
2022/06/12 10:00:03;;;;;;;3.92;2.13;;;26.90;53.40;;;;;;4957567;28;20569;-82
2022/06/12 10:02:43;;;;;;;2.58;2.38;;;26.90;51.40;;;;;;4928309;29;20506;-83
2022/06/12 10:05:43;;;;;;;2.40;2.30;;;26.90;51.80;;;;;;4927952;29;20043;-82
2022/06/12 10:08:15;;;;;;;2.95;2.53;;;26.80;51.20;;;;;;4924090;29;20129;-83
2022/06/12 10:11:13;;;;;;;3.20;2.05;;;26.80;51.00;;;;;;4924047;28;20075;-83
2022/06/12 10:13:42;;;;;;;2.40;2.30;;;26.80;50.40;;;;;;4940426;28;20609;-83
2022/06/12 10:16:24;;;;;;;2.60;2.40;;;26.70;50.20;;;;;;4940382;29;20043;-83
2022/06/12 10:19:17;;;;;;;3.50;2.50;;;26.70;50.20;;;;;;4915923;29;20039;-83
2022/06/12 10:21:51;;;;;;;2.78;2.28;;;26.60;50.70;;;;;;4920098;29;20036;-83
2022/06/12 10:24:17;;;;;;;2.13;2.03;;;26.60;50.20;;;;;;4960347;28;20038;-83
2022/06/12 10:26:56;;;;;;;3.83;2.55;;;26.60;50.70;;;;;;4963801;28;20525;-83
2022/06/12 10:29:24;;;;;;;3.55;2.50;;;26.60;52.50;;;;;;4965071;28;20490;-83
2022/06/12 10:31:59;;;;;;;3.88;2.63;;;26.60;52.30;;;;;;4945198;28;21144;-83
2022/06/12 10:34:29;;;;;;;2.53;2.30;;;26.70;51.30;;;;;;4963037;28;20730;-83
2022/06/12 10:37:07;;;;;;;3.60;2.50;;;26.70;50.80;;;;;;4960073;28;20039;-83
2022/06/12 10:39:34;;;;;;;2.80;2.60;;;26.60;50.70;;;;;;4964067;28;20046;-83
2022/06/12 10:42:08;;;;;;;2.63;2.20;;;26.50;51.40;;;;;;4975354;28;20109;-83
2022/06/12 10:44:44;;;;;;;3.38;2.58;;;26.60;50.20;;;;;;4964514;28;20061;-83
2022/06/12 10:47:31;;;;;;;3.00;2.47;;;26.50;50.40;;;;;;4961471;28;20047;-83
2022/06/12 10:50:13;;;;;;;4.18;2.20;;;26.50;49.90;;;;;;4964219;28;20071;-83
2022/06/12 10:52:54;;;;;;;4.00;2.50;;;26.50;51.90;;;;;;4975510;28;20126;-83
2022/06/12 10:55:31;;;;;;;3.30;2.40;;;26.50;50.90;;;;;;4927693;28;20035;-83
2022/06/12 10:58:19;;;;;;;3.08;2.78;;;26.50;51.10;;;;;;4961335;28;20031;-83
2022/06/12 11:00:47;;;;;;;4.88;2.50;;;26.50;49.90;;;;;;4960351;28;20465;-83
2022/06/12 11:03:26;;;;;;;2.35;2.15;;;26.50;50.90;;;;;;4974720;28;20362;-83
2022/06/12 11:06:11;;;;;;;3.00;2.65;;;26.40;50.30;;;;;;4959306;28;20446;-83
2022/06/12 11:09:04;;;;;;;3.15;2.40;;;26.50;50.60;;;;;;4975805;28;20610;-83
2022/06/12 11:11:40;;;;;;;2.47;2.28;;;26.50;51.90;;;;;;4971022;28;20090;-83
2022/06/12 11:14:20;;;;;;;3.95;2.80;;;26.50;50.80;;;;;;4983106;28;20042;-83
2022/06/12 11:17:21;;;;;;;4.38;2.42;;;26.50;49.80;;;;;;4982731;28;20042;-83
2022/06/12 11:19:53;;;;;;;4.05;2.40;;;26.50;49.50;;;;;;4971503;28;20420;-83
2022/06/12 11:22:33;;;;;;;2.78;2.45;;;26.50;50.80;;;;;;4983737;28;20039;-83
2022/06/12 11:25:26;;;;;;;3.05;2.50;;;26.50;50.40;;;;;;4970949;28;20509;-83
2022/06/12 11:28:19;;;;;;;3.78;2.20;;;26.60;49.70;;;;;;4982638;28;20093;-83
2022/06/12 11:31:02;;;;;;;3.58;2.20;;;26.50;50.70;;;;;;4982926;28;20511;-83
2022/06/12 11:33:28;;;;;;;2.83;2.47;;;26.50;52.00;;;;;;4968445;28;20094;-83
2022/06/12 11:36:06;;;;;;;2.30;2.10;;;26.60;51.70;;;;;;4981553;28;20100;-82
2022/06/12 11:39:03;;;;;;;2.40;2.20;;;26.60;54.00;;;;;;4967048;28;20037;-84
2022/06/12 11:41:31;;;;;;;2.45;2.25;;;26.60;52.10;;;;;;4955613;28;20034;-82
2022/06/12 11:44:08;;;;;;;2.88;2.25;;;26.60;51.60;;;;;;4983520;28;20544;-82
2022/06/12 11:46:56;;;;;;;2.38;2.17;;;26.60;51.20;;;;;;4997960;28;20034;-82
2022/06/12 11:49:48;;;;;;;2.97;2.20;;;26.60;50.80;;;;;;4982613;28;20521;-82
2022/06/12 11:52:25;;;;;;;3.20;2.15;;;26.60;50.70;;;;;;4997367;28;20027;-82
2022/06/12 11:55:12;;;;;;;3.15;2.53;;;26.60;52.00;;;;;;4964818;28;20104;-82
2022/06/12 11:57:42;;;;;;;2.20;2.00;;;26.60;50.40;;;;;;4985517;28;20501;-82
2022/06/12 12:00:12;;;;;;;2.40;2.20;;;26.50;50.80;;;;;;4986369;28;20064;-81
2022/06/12 12:02:50;;;;;;;2.65;2.40;;;26.60;51.00;;;;;;4985281;28;20034;-84
2022/06/12 12:05:48;;;;;;;4.82;2.00;;;26.60;52.00;;;;;;4998904;28;20042;-82
2022/06/12 12:08:23;;;;;;;2.30;2.08;;;26.60;51.70;;;;;;4949629;28;20054;-83
2022/06/12 12:11:17;;;;;;;5.68;2.40;;;26.60;53.10;;;;;;4981166;28;20054;-82
2022/06/12 12:13:48;;;;;;;2.92;2.08;;;26.60;50.10;;;;;;4986041;28;20042;-83
2022/06/12 12:16:31;;;;;;;3.25;2.22;;;26.60;51.20;;;;;;4969206;28;20202;-83
2022/06/12 12:19:06;;;;;;;6.15;2.40;;;26.50;51.50;;;;;;4997911;28;20057;-82
2022/06/12 12:21:58;;;;;;;2.75;2.55;;;26.50;50.40;;;;;;4966257;28;20042;-83
2022/06/12 12:25:00;;;;;;;2.60;2.33;;;26.50;50.40;;;;;;4981704;28;20040;-83
2022/06/12 12:27:48;;;;;;;3.10;2.20;;;26.50;51.00;;;;;;4975720;28;20126;-83
2022/06/12 12:30:30;;;;;;;3.17;2.33;;;26.40;51.00;;;;;;4965569;28;20038;-83
2022/06/12 12:32:59;;;;;;;3.47;2.10;;;26.40;50.40;;;;;;4969225;28;20069;-83
2022/06/12 12:41:13;;;;;;;3.40;2.10;;;26.40;51.00;;;;;;5000864;28;20173;-83
2022/06/12 12:43:56;;;;;;;2.88;1.90;;;26.40;52.10;;;;;;4982771;28;20053;-83
2022/06/12 12:46:26;;;;;;;2.33;2.13;;;26.40;52.30;;;;;;4965234;28;20086;-83
2022/06/12 12:48:55;;;;;;;2.55;2.35;;;26.40;52.60;;;;;;4947748;28;20038;-83
2022/06/12 12:51:35;;;;;;;3.83;2.00;;;26.40;51.90;;;;;;4981874;28;20034;-82
2022/06/12 12:54:11;;;;;;;3.95;2.40;;;26.40;52.20;;;;;;4964829;28;20043;-82
2022/06/12 12:56:50;;;;;;;3.20;2.17;;;26.50;50.80;;;;;;4985316;28;20121;-82
2022/06/12 12:59:18;;;;;;;2.97;2.50;;;26.50;50.70;;;;;;4964949;28;20047;-82
2022/06/12 13:01:47;;;;;;;2.40;2.20;;;26.50;49.50;;;;;;5000197;28;20040;-82
2022/06/12 13:04:16;;;;;;;4.82;2.40;;;26.50;49.20;;;;;;4965153;28;20394;-82
2022/06/12 13:07:43;;;;;;;3.03;2.60;;;26.50;49.20;;;;;;4980706;28;20480;-83
2022/06/12 13:10:33;;;;;;;2.83;2.15;;;26.40;48.90;;;;;;4916877;29;20130;-82
2022/06/12 13:13:18;;;;;;;4.28;2.30;;;26.30;49.90;;;;;;4941870;29;20514;-82
2022/06/12 13:15:51;;;;;;;4.43;2.20;;;26.30;49.80;;;;;;4923331;29;20434;-83
2022/06/12 13:18:25;;;;;;;2.20;2.10;;;26.30;50.60;;;;;;4913821;29;20058;-83
2022/06/12 13:21:04;;;;;;;3.10;2.53;;;26.30;50.50;;;;;;4929615;28;20047;-82
2022/06/12 13:23:50;;;;;;;2.60;2.40;;;26.20;50.00;;;;;;4941069;29;20746;-83
2022/06/12 13:26:19;;;;;;;2.50;2.30;;;26.20;50.50;;;;;;4938268;29;20039;-82
2022/06/12 13:28:58;;;;;;;2.92;2.30;;;26.20;50.70;;;;;;4914465;29;20031;-82
2022/06/12 13:31:24;;;;;;;2.92;2.45;;;26.20;50.60;;;;;;4908047;28;20046;-82
2022/06/12 13:33:53;;;;;;;2.42;2.20;;;26.30;50.90;;;;;;4911610;29;20919;-82
2022/06/12 13:36:42;;;;;;;4.18;2.10;;;26.30;51.60;;;;;;4912421;29;20518;-82
2022/06/12 13:39:36;;;;;;;2.60;2.40;;;26.20;51.60;;;;;;4916040;29;20039;-82